Time;durP1;ratioP1;P1;durP2;ratioP2;P2;SDS_P1;SDS_P2;PMS_P1;PMS_P2;Temp;Humidity;BMP_temperature;BMP_pressure;BME280_temperature;BME280_humidity;BME280_pressure;Samples;Min_cycle;Max_cycle;Signal;HPM_P1;HPM_P2
2023/04/24 00:00:06;;;;;;;10.80;4.13;;;22.60;73.00;;;;;;4187586;28;20041;-62
2023/04/24 00:02:28;;;;;;;16.83;3.22;;;22.60;73.00;;;;;;4186913;28;20037;-55
2023/04/24 00:04:51;;;;;;;7.47;3.30;;;22.70;73.20;;;;;;4177300;28;20354;-57
2023/04/24 00:07:14;;;;;;;13.05;3.95;;;22.70;73.20;;;;;;4180725;28;20234;-59
2023/04/24 00:09:36;;;;;;;14.90;3.95;;;22.80;73.90;;;;;;4180763;28;20053;-51
2023/04/24 00:11:59;;;;;;;11.35;3.90;;;22.90;73.80;;;;;;4186925;28;20496;-50
2023/04/24 00:14:22;;;;;;;12.98;4.10;;;22.90;73.50;;;;;;4176608;28;20033;-53
2023/04/24 00:16:44;;;;;;;7.75;3.55;;;22.90;73.20;;;;;;4179752;28;20044;-57
2023/04/24 00:19:07;;;;;;;12.52;3.65;;;22.90;72.90;;;;;;4184105;28;20033;-59
2023/04/24 00:21:29;;;;;;;19.00;4.47;;;23.00;72.60;;;;;;4184466;28;20032;-59
2023/04/24 00:23:52;;;;;;;51.08;6.03;;;23.00;72.50;;;;;;4179238;28;20111;-61
2023/04/24 00:26:15;;;;;;;20.53;4.17;;;23.00;72.80;;;;;;4187141;28;20036;-60
2023/04/24 00:28:37;;;;;;;22.77;4.82;;;23.00;73.00;;;;;;4186165;28;20526;-58
2023/04/24 00:31:00;;;;;;;19.90;3.75;;;23.00;73.00;;;;;;4178392;28;20090;-58
2023/04/24 00:33:22;;;;;;;16.73;4.53;;;22.90;73.10;;;;;;4184849;28;20515;-58
2023/04/24 00:35:45;;;;;;;22.15;3.95;;;22.90;73.10;;;;;;4180645;28;20076;-56
2023/04/24 00:38:07;;;;;;;12.25;3.88;;;22.90;73.00;;;;;;4177632;28;20386;-58
2023/04/24 00:40:30;;;;;;;13.20;3.67;;;22.90;73.10;;;;;;4190866;28;20039;-58
2023/04/24 00:42:52;;;;;;;18.80;4.32;;;23.00;73.10;;;;;;4186580;28;20048;-56
2023/04/24 00:45:15;;;;;;;13.90;3.35;;;23.00;73.30;;;;;;4169556;28;20045;-58
2023/04/24 00:47:38;;;;;;;12.70;3.75;;;23.00;73.30;;;;;;4187324;28;20408;-54
2023/04/24 00:50:06;;;;;;;14.13;3.42;;;23.00;73.50;;;;;;4206873;28;20109;-57
2023/04/24 00:52:31;;;;;;;14.55;3.40;;;23.10;73.60;;;;;;4206703;28;20094;-55
2023/04/24 00:54:53;;;;;;;8.93;3.00;;;23.10;73.50;;;;;;4207526;28;20429;-59
2023/04/24 00:57:16;;;;;;;11.30;3.22;;;23.10;73.50;;;;;;4201094;28;20028;-60
2023/04/24 00:59:40;;;;;;;8.65;3.28;;;23.20;73.40;;;;;;4206238;28;20043;-59
2023/04/24 01:02:03;;;;;;;8.50;2.83;;;23.20;73.30;;;;;;4206215;28;20089;-59
2023/04/24 01:04:26;;;;;;;10.80;2.70;;;23.20;73.30;;;;;;4204326;28;20114;-59
2023/04/24 01:06:50;;;;;;;12.50;3.10;;;23.30;73.30;;;;;;4205386;28;20407;-56
2023/04/24 01:09:14;;;;;;;9.10;3.20;;;23.30;73.20;;;;;;4204710;28;20040;-50
2023/04/24 01:11:37;;;;;;;10.63;3.15;;;23.30;73.80;;;;;;4205337;28;20043;-55
2023/04/24 01:14:01;;;;;;;9.52;3.03;;;23.40;73.00;;;;;;4204142;28;20032;-56
2023/04/24 01:16:24;;;;;;;8.13;2.50;;;23.40;73.00;;;;;;4204937;28;20037;-52
2023/04/24 01:18:46;;;;;;;7.63;2.55;;;23.40;73.20;;;;;;4206375;28;20036;-57
2023/04/24 01:21:13;;;;;;;7.68;2.33;;;23.40;73.10;;;;;;4204699;28;20040;-56
2023/04/24 01:23:35;;;;;;;6.68;2.83;;;23.40;73.00;;;;;;4200131;28;20346;-51
2023/04/24 01:25:58;;;;;;;6.75;2.22;;;23.40;72.70;;;;;;4205955;28;20548;-53
2023/04/24 01:28:21;;;;;;;7.50;2.58;;;23.50;72.50;;;;;;4205388;28;20101;-55
2023/04/24 01:30:43;;;;;;;16.98;3.40;;;23.50;72.50;;;;;;4209994;28;20326;-54
2023/04/24 01:33:06;;;;;;;5.15;2.03;;;23.50;72.50;;;;;;4209310;28;20024;-47
2023/04/24 01:35:29;;;;;;;8.60;2.38;;;23.50;72.50;;;;;;4207814;28;20032;-51
2023/04/24 01:37:51;;;;;;;6.53;2.80;;;23.60;72.40;;;;;;4207589;28;20037;-50
2023/04/24 01:40:13;;;;;;;6.35;2.22;;;23.60;72.30;;;;;;4211443;28;20535;-50
2023/04/24 01:42:36;;;;;;;6.00;2.45;;;23.60;72.50;;;;;;4211706;28;20040;-52
2023/04/24 01:44:59;;;;;;;5.63;2.08;;;23.60;72.50;;;;;;4194521;28;20115;-45
2023/04/24 01:47:22;;;;;;;5.15;2.17;;;23.60;72.40;;;;;;4194979;28;20032;-50
2023/04/24 01:49:46;;;;;;;9.38;2.30;;;23.70;72.20;;;;;;4205044;28;20133;-51
2023/04/24 01:52:07;;;;;;;;;;;23.70;72.20;;;;;;4208511;28;20044;-49
2023/04/24 01:54:30;;;;;;;8.18;2.22;;;23.70;72.10;;;;;;4204217;28;19913;-55
2023/04/24 01:56:52;;;;;;;5.55;2.53;;;23.80;72.20;;;;;;4199865;28;20055;-50
2023/04/24 01:59:17;;;;;;;4.97;2.05;;;23.80;72.00;;;;;;4206608;28;20044;-49
2023/04/24 02:01:40;;;;;;;7.10;1.80;;;23.80;71.80;;;;;;4201992;28;20101;-53
2023/04/24 02:04:02;;;;;;;4.47;1.88;;;23.80;71.70;;;;;;4194112;28;20042;-52
2023/04/24 02:06:25;;;;;;;4.43;1.80;;;23.80;71.70;;;;;;4198056;28;20516;-57
2023/04/24 02:08:47;;;;;;;7.28;1.90;;;23.90;71.70;;;;;;4207562;28;20515;-57
2023/04/24 02:11:10;;;;;;;5.03;2.17;;;23.80;71.70;;;;;;4204807;28;20048;-58
2023/04/24 02:13:32;;;;;;;8.97;1.50;;;23.90;71.80;;;;;;4210826;28;20487;-52
2023/04/24 02:15:55;;;;;;;7.10;1.75;;;23.80;71.80;;;;;;4202719;28;20154;-55
2023/04/24 02:18:17;;;;;;;7.50;2.00;;;23.90;71.80;;;;;;4209551;28;20059;-58
2023/04/24 02:20:40;;;;;;;6.60;2.42;;;23.80;71.40;;;;;;4212608;28;20050;-50
2023/04/24 02:23:02;;;;;;;7.03;1.83;;;23.80;70.50;;;;;;4208313;28;20476;-46
2023/04/24 02:25:25;;;;;;;5.03;2.78;;;23.80;70.60;;;;;;4202568;28;20036;-50
2023/04/24 02:27:47;;;;;;;3.38;1.88;;;23.80;70.70;;;;;;4207014;28;20114;-55
2023/04/24 02:30:11;;;;;;;4.55;1.80;;;23.90;70.70;;;;;;4196390;28;20043;-54
2023/04/24 02:32:34;;;;;;;4.07;1.80;;;23.90;70.80;;;;;;4210738;27;20051;-46
2023/04/24 02:34:56;;;;;;;5.03;1.80;;;23.90;71.00;;;;;;4205489;28;20502;-48
2023/04/24 02:37:19;;;;;;;6.15;1.98;;;24.00;71.30;;;;;;4185504;28;20056;-53
2023/04/24 02:39:41;;;;;;;7.45;1.70;;;24.00;71.30;;;;;;4206315;28;20035;-47
2023/04/24 02:42:03;;;;;;;4.88;1.65;;;24.00;71.20;;;;;;4204196;28;20028;-49
2023/04/24 02:44:26;;;;;;;7.47;2.05;;;24.00;71.20;;;;;;4204152;28;20035;-50
2023/04/24 02:46:48;;;;;;;4.25;1.70;;;24.00;71.10;;;;;;4206579;28;20036;-48
2023/04/24 02:49:11;;;;;;;7.30;1.90;;;24.00;71.00;;;;;;4205544;28;20056;-53
2023/04/24 02:51:34;;;;;;;8.45;2.13;;;24.00;71.00;;;;;;4206160;28;20043;-48
2023/04/24 02:53:57;;;;;;;8.25;2.28;;;24.10;71.10;;;;;;4203209;28;20064;-55
2023/04/24 02:56:19;;;;;;;5.93;1.88;;;24.10;71.10;;;;;;4201633;28;20579;-56
2023/04/24 02:58:42;;;;;;;5.63;2.08;;;24.10;71.00;;;;;;4207183;28;20125;-54
2023/04/24 03:01:05;;;;;;;8.27;2.08;;;24.10;71.00;;;;;;4206662;28;20523;-50
2023/04/24 03:03:27;;;;;;;5.47;2.22;;;24.10;70.80;;;;;;4206688;28;20122;-57
2023/04/24 03:05:50;;;;;;;5.95;1.90;;;24.10;70.30;;;;;;4207713;28;20048;-59
2023/04/24 03:08:12;;;;;;;9.20;2.63;;;24.10;69.60;;;;;;4191258;28;20120;-54
2023/04/24 03:10:34;;;;;;;4.43;1.85;;;24.10;69.40;;;;;;4190402;28;20097;-51
2023/04/24 03:12:57;;;;;;;4.50;2.00;;;24.10;69.10;;;;;;4207009;28;20036;-50
2023/04/24 03:15:19;;;;;;;3.45;1.75;;;24.20;69.10;;;;;;4206815;28;20124;-51
2023/04/24 03:17:42;;;;;;;5.32;1.85;;;24.20;69.80;;;;;;4206951;28;20089;-54
2023/04/24 03:20:08;;;;;;;4.78;1.80;;;24.20;69.80;;;;;;4207348;28;20502;-56
2023/04/24 03:22:32;;;;;;;5.70;1.92;;;24.20;69.60;;;;;;4188858;28;20037;-50
2023/04/24 03:24:55;;;;;;;9.00;2.00;;;24.20;69.60;;;;;;4206488;28;20036;-55
2023/04/24 03:27:17;;;;;;;4.28;2.05;;;24.30;69.70;;;;;;4201383;28;20169;-49
2023/04/24 03:29:40;;;;;;;6.20;1.88;;;24.30;69.80;;;;;;4204229;28;20044;-49
2023/04/24 03:32:02;;;;;;;6.30;1.80;;;24.30;69.80;;;;;;4207827;28;20408;-49
2023/04/24 03:34:24;;;;;;;6.65;2.10;;;24.30;69.80;;;;;;4202905;28;20032;-46
2023/04/24 03:36:47;;;;;;;4.75;1.92;;;24.30;69.90;;;;;;4189485;28;20107;-48
2023/04/24 03:39:10;;;;;;;3.65;1.73;;;24.40;69.80;;;;;;4206650;28;20482;-50
2023/04/24 03:41:32;;;;;;;4.15;1.90;;;24.40;69.60;;;;;;4204809;28;20070;-51
2023/04/24 03:43:54;;;;;;;5.53;1.95;;;24.40;69.80;;;;;;4202784;28;20032;-50
2023/04/24 03:46:17;;;;;;;6.25;1.95;;;24.40;69.80;;;;;;4202669;28;20451;-52
2023/04/24 03:48:39;;;;;;;5.43;1.90;;;24.40;69.70;;;;;;4201363;28;20063;-53
2023/04/24 03:51:02;;;;;;;3.38;1.50;;;24.50;69.70;;;;;;4198642;28;20605;-48
2023/04/24 03:53:24;;;;;;;7.35;1.65;;;24.50;69.50;;;;;;4201253;28;20040;-51
2023/04/24 03:55:47;;;;;;;6.03;2.10;;;24.60;69.40;;;;;;4204890;28;20106;-55
2023/04/24 03:58:11;;;;;;;3.20;1.60;;;24.60;69.40;;;;;;4198026;28;20048;-59
2023/04/24 04:00:34;;;;;;;4.10;1.90;;;24.70;69.30;;;;;;4203449;28;20342;-52
2023/04/24 04:02:56;;;;;;;4.18;1.88;;;24.70;68.50;;;;;;4204184;28;20044;-55
2023/04/24 04:05:19;;;;;;;4.97;1.75;;;24.70;68.60;;;;;;4207429;28;20032;-55
2023/04/24 04:07:41;;;;;;;6.55;2.00;;;24.70;68.70;;;;;;4205157;28;20040;-51
2023/04/24 04:10:04;;;;;;;4.40;1.50;;;24.80;68.70;;;;;;4203011;28;20028;-50
2023/04/24 04:12:27;;;;;;;3.30;1.40;;;24.80;68.70;;;;;;4204364;28;20523;-53
2023/04/24 04:14:49;;;;;;;6.07;1.90;;;24.80;68.70;;;;;;4202658;28;20407;-54
2023/04/24 04:17:11;;;;;;;4.82;1.60;;;24.80;68.70;;;;;;4205451;28;20036;-53
2023/04/24 04:19:34;;;;;;;2.83;1.52;;;24.80;68.90;;;;;;4191414;28;20083;-51
2023/04/24 04:21:57;;;;;;;5.90;1.52;;;24.80;68.90;;;;;;4202920;28;20206;-50
2023/04/24 04:24:23;;;;;;;5.03;1.80;;;24.80;68.90;;;;;;4204726;28;20087;-55
2023/04/24 04:26:46;;;;;;;4.72;1.98;;;24.90;68.90;;;;;;4203150;28;20028;-49
2023/04/24 04:29:10;;;;;;;4.40;1.57;;;24.90;68.70;;;;;;4202025;28;20036;-49
2023/04/24 04:31:32;;;;;;;3.58;1.38;;;25.00;68.40;;;;;;4204049;28;20055;-54
2023/04/24 04:33:55;;;;;;;5.30;1.88;;;25.10;68.40;;;;;;4206509;28;20492;-57
2023/04/24 04:36:17;;;;;;;3.92;1.50;;;25.10;68.30;;;;;;4203323;28;20488;-55
2023/04/24 04:38:40;;;;;;;4.63;1.73;;;25.10;68.30;;;;;;4191097;28;20060;-54
2023/04/24 04:41:02;;;;;;;4.90;1.60;;;25.10;68.40;;;;;;4201168;28;20036;-53
2023/04/24 04:43:26;;;;;;;5.88;2.03;;;25.10;68.50;;;;;;4206128;28;20280;-51
2023/04/24 04:45:48;;;;;;;3.15;1.50;;;25.10;68.50;;;;;;4203799;28;20036;-49
2023/04/24 04:48:13;;;;;;;4.45;1.77;;;25.10;68.40;;;;;;4204056;28;20058;-58
2023/04/24 04:50:36;;;;;;;4.55;1.50;;;25.10;68.40;;;;;;4199645;28;20047;-58
2023/04/24 04:52:58;;;;;;;3.13;1.40;;;25.20;68.40;;;;;;4209210;28;20069;-51
2023/04/24 04:55:21;;;;;;;3.72;1.58;;;25.30;68.10;;;;;;4211680;28;20032;-49
2023/04/24 04:57:43;;;;;;;5.50;1.95;;;25.30;67.90;;;;;;4203983;28;20028;-50
2023/04/24 05:00:07;;;;;;;5.53;2.00;;;25.30;67.90;;;;;;4203212;28;20032;-50
2023/04/24 05:02:29;;;;;;;3.40;1.50;;;25.40;67.60;;;;;;4206790;28;20052;-58
2023/04/24 05:04:52;;;;;;;5.43;1.75;;;25.40;67.60;;;;;;4208518;28;20035;-60
2023/04/24 05:07:14;;;;;;;3.00;1.50;;;25.50;67.40;;;;;;4198515;28;20512;-54
2023/04/24 05:09:37;;;;;;;5.35;2.03;;;25.70;66.70;;;;;;4203900;28;20489;-58
2023/04/24 05:12:00;;;;;;;5.95;1.90;;;25.70;66.10;;;;;;4209969;28;20112;-53
2023/04/24 05:14:22;;;;;;;6.55;2.35;;;25.80;65.70;;;;;;4207996;28;20063;-53
2023/04/24 05:16:45;;;;;;;6.13;2.10;;;25.80;65.60;;;;;;4208383;28;20043;-51
2023/04/24 05:19:07;;;;;;;5.63;2.03;;;26.00;65.50;;;;;;4204507;28;20507;-55
2023/04/24 05:21:30;;;;;;;5.70;1.83;;;26.10;65.20;;;;;;4202452;28;20035;-56
2023/04/24 05:23:53;;;;;;;5.63;2.40;;;26.20;65.20;;;;;;4203630;28;20078;-52
2023/04/24 05:26:15;;;;;;;7.18;2.30;;;26.20;65.00;;;;;;4198120;28;20048;-52
2023/04/24 05:28:37;;;;;;;4.95;2.05;;;26.20;65.00;;;;;;4210689;28;20044;-49
2023/04/24 05:31:00;;;;;;;4.28;1.85;;;26.20;65.20;;;;;;4208741;28;20487;-53
2023/04/24 05:33:23;;;;;;;5.72;1.77;;;26.20;65.50;;;;;;4209242;28;20032;-53
2023/04/24 05:35:46;;;;;;;4.25;2.08;;;26.10;65.60;;;;;;4206376;28;20031;-52
2023/04/24 05:38:08;;;;;;;6.28;1.92;;;26.10;65.70;;;;;;4205443;28;20138;-52
2023/04/24 05:40:31;;;;;;;5.13;2.10;;;26.00;65.90;;;;;;4200760;28;20028;-47
2023/04/24 05:42:53;;;;;;;4.65;2.05;;;26.00;66.00;;;;;;4207438;28;20071;-46
2023/04/24 05:45:16;;;;;;;6.25;2.10;;;25.90;66.00;;;;;;4203897;28;20314;-55
2023/04/24 05:47:38;;;;;;;6.25;1.90;;;26.00;66.20;;;;;;4200863;28;20043;-56
2023/04/24 05:50:01;;;;;;;5.05;1.83;;;25.90;66.20;;;;;;4202725;28;20036;-56
2023/04/24 05:52:23;;;;;;;5.65;2.20;;;25.90;66.30;;;;;;4200013;28;20055;-59
2023/04/24 05:54:46;;;;;;;5.30;2.00;;;25.80;66.30;;;;;;4201051;28;20564;-50
2023/04/24 05:57:08;;;;;;;7.22;2.53;;;25.80;66.40;;;;;;4205214;28;20036;-54
2023/04/24 05:59:31;;;;;;;7.95;2.42;;;25.80;66.50;;;;;;4188649;28;20029;-61
2023/04/24 06:01:53;;;;;;;6.32;2.40;;;25.80;66.40;;;;;;4201526;28;20102;-61
2023/04/24 06:04:15;;;;;;;7.28;2.22;;;25.70;66.30;;;;;;4207743;28;20035;-54
2023/04/24 06:06:38;;;;;;;6.43;1.98;;;25.70;66.30;;;;;;4206108;28;20076;-56
2023/04/24 06:09:00;;;;;;;6.13;2.00;;;25.70;66.30;;;;;;4205676;28;20066;-56
2023/04/24 06:11:22;;;;;;;9.13;2.60;;;25.70;66.40;;;;;;4197946;28;20181;-51
2023/04/24 06:13:45;;;;;;;8.88;2.47;;;25.70;66.40;;;;;;4203734;28;20510;-56
2023/04/24 06:16:08;;;;;;;9.00;2.40;;;25.70;66.50;;;;;;4201564;28;20040;-57
2023/04/24 06:18:30;;;;;;;7.60;2.42;;;25.60;66.50;;;;;;4205408;28;20035;-58
2023/04/24 06:20:52;;;;;;;8.75;2.10;;;25.60;66.60;;;;;;4206370;28;20066;-57
2023/04/24 06:23:15;;;;;;;9.50;2.42;;;25.60;67.20;;;;;;4206737;28;20040;-59
2023/04/24 06:25:38;;;;;;;6.47;1.83;;;25.50;66.60;;;;;;4205534;28;20109;-56
2023/04/24 06:28:01;;;;;;;7.90;2.73;;;25.50;66.60;;;;;;4200746;28;20028;-58
2023/04/24 06:30:24;;;;;;;7.82;2.40;;;25.50;66.70;;;;;;4211143;28;20064;-58
2023/04/24 06:32:46;;;;;;;6.93;1.90;;;25.50;66.80;;;;;;4202176;28;20052;-51
2023/04/24 06:35:09;;;;;;;9.40;2.45;;;25.40;66.70;;;;;;4209780;28;20028;-52
2023/04/24 06:37:32;;;;;;;8.30;2.47;;;25.40;66.50;;;;;;4207450;28;20334;-55
2023/04/24 06:39:54;;;;;;;8.15;1.83;;;25.40;66.60;;;;;;4206740;28;20040;-54
2023/04/24 06:42:16;;;;;;;11.43;2.47;;;25.40;66.70;;;;;;4207407;28;20054;-58
2023/04/24 06:44:42;;;;;;;13.40;3.42;;;25.40;67.40;;;;;;4205692;28;20501;-55
2023/04/24 06:47:05;;;;;;;15.00;3.03;;;25.40;66.70;;;;;;4206411;28;20044;-59
2023/04/24 06:49:27;;;;;;;9.23;2.75;;;25.40;66.90;;;;;;4183627;28;20396;-63
2023/04/24 06:51:50;;;;;;;13.23;2.35;;;25.40;67.00;;;;;;4180760;28;20060;-64
2023/04/24 06:54:12;;;;;;;15.40;2.67;;;25.40;67.10;;;;;;4189128;28;20036;-66
2023/04/24 06:56:35;;;;;;;14.15;2.80;;;25.40;67.20;;;;;;4189424;28;20036;-64
2023/04/24 06:58:58;;;;;;;23.75;3.10;;;25.40;67.20;;;;;;4167911;28;20029;-65
2023/04/24 07:01:20;;;;;;;12.80;2.60;;;25.40;67.30;;;;;;4188796;28;20411;-67
2023/04/24 07:03:42;;;;;;;9.85;2.45;;;25.40;67.30;;;;;;4181848;28;20729;-67
2023/04/24 07:06:05;;;;;;;9.68;3.17;;;25.40;67.30;;;;;;4189898;28;20042;-65
2023/04/24 07:08:30;;;;;;;9.93;2.58;;;25.40;67.30;;;;;;4189592;28;20040;-62
2023/04/24 07:10:52;;;;;;;9.35;2.70;;;25.40;67.40;;;;;;4188590;28;20056;-62
2023/04/24 07:13:15;;;;;;;10.00;2.85;;;25.40;67.40;;;;;;4184063;28;20047;-63
2023/04/24 07:15:37;;;;;;;13.82;3.72;;;25.30;67.90;;;;;;4190935;28;20045;-60
2023/04/24 07:18:00;;;;;;;11.35;2.92;;;25.30;67.40;;;;;;4188538;28;20071;-66
2023/04/24 07:20:22;;;;;;;9.75;3.03;;;25.30;67.40;;;;;;4184395;28;20072;-61
2023/04/24 07:22:45;;;;;;;12.07;3.00;;;25.30;67.50;;;;;;4190799;28;20428;-62
2023/04/24 07:25:08;;;;;;;11.73;2.90;;;25.30;67.60;;;;;;4185742;28;20602;-64
2023/04/24 07:27:31;;;;;;;11.60;2.70;;;25.30;67.60;;;;;;4172713;28;20036;-64
2023/04/24 07:29:53;;;;;;;22.80;2.88;;;25.30;67.70;;;;;;4187590;28;20047;-62
2023/04/24 07:32:16;;;;;;;11.73;3.35;;;25.30;67.70;;;;;;4179014;28;20048;-62
2023/04/24 07:34:38;;;;;;;8.82;3.00;;;25.30;67.90;;;;;;4191114;28;20057;-62
2023/04/24 07:37:01;;;;;;;13.07;3.15;;;25.20;67.40;;;;;;4186807;28;20385;-64
2023/04/24 07:39:24;;;;;;;11.07;2.72;;;25.20;67.20;;;;;;4180328;28;20056;-60
2023/04/24 07:41:47;;;;;;;12.45;3.10;;;25.20;67.20;;;;;;4167803;28;20107;-60
2023/04/24 07:44:09;;;;;;;11.48;2.92;;;25.10;67.50;;;;;;4186284;28;20040;-61
2023/04/24 07:46:32;;;;;;;9.07;2.67;;;25.20;67.70;;;;;;4186696;28;20036;-64
2023/04/24 07:48:54;;;;;;;8.93;2.53;;;25.20;67.80;;;;;;4189125;28;20086;-62
2023/04/24 07:51:17;;;;;;;8.45;2.88;;;25.20;67.90;;;;;;4187286;28;20052;-65
2023/04/24 07:53:43;;;;;;;9.80;2.67;;;25.20;68.10;;;;;;4189585;28;20100;-65
2023/04/24 07:56:05;;;;;;;7.97;2.92;;;25.10;68.10;;;;;;4183879;28;20488;-60
2023/04/24 07:58:28;;;;;;;9.15;3.00;;;25.10;68.20;;;;;;4188106;28;20139;-64
2023/04/24 08:00:50;;;;;;;9.65;3.50;;;25.10;68.00;;;;;;4183686;28;20064;-62
2023/04/24 08:03:12;;;;;;;10.52;3.30;;;25.10;68.00;;;;;;4186787;28;20037;-63
2023/04/24 08:05:35;;;;;;;7.72;2.63;;;25.10;68.00;;;;;;4185826;28;20124;-64
2023/04/24 08:07:57;;;;;;;7.93;2.92;;;25.10;68.00;;;;;;4179192;28;20032;-62
2023/04/24 08:10:21;;;;;;;9.40;2.72;;;25.10;68.10;;;;;;4187760;28;20031;-63
2023/04/24 08:12:43;;;;;;;10.75;2.83;;;25.10;68.00;;;;;;4185304;28;20068;-62
2023/04/24 08:15:06;;;;;;;8.63;2.63;;;25.10;68.20;;;;;;4185255;28;20542;-62
2023/04/24 08:17:29;;;;;;;8.38;3.10;;;25.10;68.20;;;;;;4192005;28;20035;-63
2023/04/24 08:19:53;;;;;;;8.18;2.38;;;25.10;68.30;;;;;;4186082;28;20047;-63
2023/04/24 08:22:16;;;;;;;6.75;2.85;;;25.00;68.20;;;;;;4189068;28;20123;-61
2023/04/24 08:24:38;;;;;;;5.38;1.98;;;25.00;68.40;;;;;;4173071;28;20571;-59
2023/04/24 08:27:01;;;;;;;14.15;2.88;;;25.00;68.40;;;;;;4184832;28;20377;-61
2023/04/24 08:29:23;;;;;;;15.85;3.50;;;25.00;68.50;;;;;;4175777;28;20040;-61
2023/04/24 08:31:46;;;;;;;7.63;2.42;;;24.90;68.70;;;;;;4183158;28;20048;-60
2023/04/24 08:34:09;;;;;;;8.10;2.20;;;25.00;68.80;;;;;;4190194;28;20072;-63
2023/04/24 08:36:33;;;;;;;8.70;2.25;;;24.90;68.90;;;;;;4186625;28;20089;-61
2023/04/24 08:38:55;;;;;;;8.15;2.75;;;24.90;68.90;;;;;;4193505;28;20051;-64
2023/04/24 08:41:19;;;;;;;10.68;2.53;;;24.90;69.00;;;;;;4185153;28;20041;-63
2023/04/24 08:43:41;;;;;;;;;;;24.90;69.10;;;;;;4187617;28;20401;-60
2023/04/24 08:46:05;;;;;;;10.40;2.60;;;24.90;69.20;;;;;;4192423;28;20290;-62
2023/04/24 08:48:27;;;;;;;;;;;24.80;67.60;;;;;;4195977;28;20112;-61
2023/04/24 08:50:53;;;;;;;9.35;3.33;;;24.80;68.20;;;;;;4209871;28;19912;-61
2023/04/24 08:53:16;;;;;;;8.02;2.78;;;24.80;68.10;;;;;;4209722;28;20044;-60
2023/04/24 08:55:43;;;;;;;17.17;3.50;;;24.80;68.10;;;;;;4211848;28;20078;-60
2023/04/24 08:58:06;;;;;;;8.27;2.83;;;24.80;68.00;;;;;;4204920;28;20541;-60
2023/04/24 09:00:30;;;;;;;7.05;3.05;;;24.70;67.90;;;;;;4210196;28;20040;-60
2023/04/24 09:02:54;;;;;;;7.03;2.47;;;24.70;67.90;;;;;;4210200;28;20048;-60
2023/04/24 09:05:18;;;;;;;8.38;2.92;;;24.70;67.90;;;;;;4210874;28;20036;-61
2023/04/24 09:07:44;;;;;;;6.55;2.60;;;24.60;68.00;;;;;;4208051;28;20032;-64
2023/04/24 09:10:08;;;;;;;10.65;2.92;;;24.60;68.10;;;;;;4207484;28;20051;-63
2023/04/24 09:12:30;;;;;;;8.43;2.90;;;24.60;68.30;;;;;;4210475;28;20105;-61
2023/04/24 09:14:54;;;;;;;10.43;3.20;;;24.60;68.50;;;;;;4209881;28;20040;-67
2023/04/24 09:17:17;;;;;;;8.07;2.80;;;24.60;68.50;;;;;;4203384;28;20040;-63
2023/04/24 09:19:40;;;;;;;9.98;3.05;;;24.60;69.30;;;;;;4182926;28;20134;-63
2023/04/24 09:22:06;;;;;;;18.93;3.30;;;24.60;68.90;;;;;;4201325;28;20044;-60
2023/04/24 09:24:29;;;;;;;7.47;3.13;;;24.60;69.00;;;;;;4207018;28;20284;-60
2023/04/24 09:27:03;;;;;;;7.07;3.20;;;24.60;69.00;;;;;;4201721;28;20556;-60
2023/04/24 09:29:26;;;;;;;8.93;3.55;;;24.60;69.10;;;;;;4208265;28;20028;-60
2023/04/24 09:31:48;;;;;;;8.35;2.78;;;24.60;69.10;;;;;;4207642;28;20080;-61
2023/04/24 09:34:11;;;;;;;8.70;2.92;;;24.60;69.20;;;;;;4210846;28;20036;-60
2023/04/24 09:36:44;;;;;;;6.38;3.03;;;24.60;69.20;;;;;;4210477;28;20485;-59
2023/04/24 09:39:11;;;;;;;11.05;3.33;;;24.50;68.10;;;;;;4200936;28;20037;-60
2023/04/24 09:41:34;;;;;;;9.13;3.33;;;24.50;68.60;;;;;;4196612;28;20109;-58
2023/04/24 09:43:58;;;;;;;9.32;3.05;;;24.50;68.70;;;;;;4201870;28;20379;-60
2023/04/24 09:46:21;;;;;;;;;;;24.50;68.90;;;;;;4181132;28;20043;-60
2023/04/24 09:48:43;;;;;;;9.38;2.78;;;24.50;69.00;;;;;;4208239;28;19923;-59
2023/04/24 09:51:10;;;;;;;10.40;2.85;;;24.40;69.10;;;;;;4198735;28;20043;-58
2023/04/24 09:53:32;;;;;;;18.48;3.63;;;24.40;69.20;;;;;;4198681;28;20531;-61
2023/04/24 09:55:55;;;;;;;8.30;2.78;;;24.40;69.30;;;;;;4200707;28;20036;-59
2023/04/24 09:58:17;;;;;;;13.60;3.60;;;24.40;69.40;;;;;;4206450;28;20066;-61
2023/04/24 10:00:40;;;;;;;9.10;3.17;;;24.40;69.60;;;;;;4209898;28;20032;-60
2023/04/24 10:03:08;;;;;;;8.25;2.70;;;24.40;69.80;;;;;;4201658;28;20360;-58
2023/04/24 10:05:32;;;;;;;25.52;3.40;;;24.40;70.00;;;;;;4200024;28;20043;-57
2023/04/24 10:08:00;;;;;;;7.10;3.00;;;24.40;70.00;;;;;;4200585;28;20086;-61
2023/04/24 10:10:23;;;;;;;10.80;2.92;;;24.40;70.30;;;;;;4205260;28;20519;-61
2023/04/24 10:12:45;;;;;;;12.30;3.90;;;24.40;70.30;;;;;;4193982;28;20439;-62
2023/04/24 10:15:12;;;;;;;15.95;3.38;;;24.40;70.70;;;;;;4201195;28;20029;-63
2023/04/24 10:17:35;;;;;;;7.22;2.70;;;24.40;70.70;;;;;;4208300;28;20380;-63
2023/04/24 10:19:58;;;;;;;;;;;24.40;69.50;;;;;;4207641;28;20063;-58
2023/04/24 10:22:21;;;;;;;8.52;3.75;;;24.40;68.70;;;;;;4206191;28;19912;-59
2023/04/24 10:24:45;;;;;;;14.70;3.95;;;24.40;69.40;;;;;;4207305;28;20399;-63
2023/04/24 10:27:09;;;;;;;6.95;2.78;;;24.30;69.70;;;;;;4209082;28;20032;-62
2023/04/24 10:29:32;;;;;;;6.18;2.45;;;24.30;69.80;;;;;;4209708;28;20454;-60
2023/04/24 10:31:55;;;;;;;6.80;2.88;;;24.30;70.10;;;;;;4200605;28;20045;-62
2023/04/24 10:34:21;;;;;;;7.28;2.92;;;24.30;70.30;;;;;;4197877;28;20104;-63
2023/04/24 10:36:48;;;;;;;6.97;2.97;;;24.20;70.50;;;;;;4191959;28;20040;-62
2023/04/24 10:39:17;;;;;;;7.05;2.50;;;24.20;70.70;;;;;;4193923;28;20097;-63
2023/04/24 10:41:40;;;;;;;7.25;3.00;;;24.20;70.80;;;;;;4196540;28;20854;-62
2023/04/24 10:44:13;;;;;;;7.00;2.80;;;24.20;70.90;;;;;;4194666;28;20488;-62
2023/04/24 10:46:36;;;;;;;6.05;2.40;;;24.20;71.00;;;;;;4198133;28;20048;-62
2023/04/24 10:48:59;;;;;;;6.43;2.42;;;24.20;71.00;;;;;;4200791;28;20048;-61
2023/04/24 10:51:23;;;;;;;8.20;3.08;;;24.20;71.00;;;;;;4196395;28;20673;-63
2023/04/24 10:53:46;;;;;;;4.82;2.47;;;24.20;71.10;;;;;;4193472;28;20032;-61
2023/04/24 10:56:10;;;;;;;6.97;2.80;;;24.20;71.10;;;;;;4198896;28;20511;-60
2023/04/24 10:58:46;;;;;;;6.30;3.08;;;24.20;71.10;;;;;;4194478;28;20042;-64
2023/04/24 11:01:09;;;;;;;5.40;2.40;;;24.20;71.10;;;;;;4200198;28;20047;-65
2023/04/24 11:03:34;;;;;;;5.87;2.20;;;24.10;71.10;;;;;;4190083;28;20044;-63
2023/04/24 11:06:10;;;;;;;4.72;2.30;;;24.20;71.20;;;;;;4179500;28;20480;-62
2023/04/24 11:08:50;;;;;;;4.18;2.08;;;24.20;71.20;;;;;;4192167;28;20039;-63
2023/04/24 11:11:13;;;;;;;4.93;2.65;;;24.20;71.20;;;;;;4183632;28;20118;-60
2023/04/24 11:13:54;;;;;;;5.03;2.30;;;24.20;71.20;;;;;;4194850;28;20293;-60
2023/04/24 11:16:25;;;;;;;4.88;2.42;;;24.10;71.20;;;;;;4194775;28;20035;-65
2023/04/24 11:18:54;;;;;;;6.38;2.80;;;24.20;71.30;;;;;;4192835;28;20435;-63
2023/04/24 11:21:20;;;;;;;5.38;2.70;;;24.20;71.30;;;;;;4191915;28;20044;-61
2023/04/24 11:23:43;;;;;;;4.57;2.60;;;24.10;71.20;;;;;;4193180;28;20035;-66
2023/04/24 11:26:38;;;;;;;5.68;2.17;;;24.10;71.30;;;;;;4193165;28;20443;-61
2023/04/24 11:29:08;;;;;;;4.35;2.30;;;24.20;71.30;;;;;;4191687;28;20039;-63
2023/04/24 11:31:40;;;;;;;4.47;2.30;;;24.20;71.30;;;;;;4194552;28;20134;-63
2023/04/24 11:34:11;;;;;;;5.57;2.05;;;24.10;71.30;;;;;;4196957;28;20039;-61
2023/04/24 11:36:35;;;;;;;4.47;2.00;;;24.20;71.40;;;;;;4194305;28;20041;-63
2023/04/24 11:38:58;;;;;;;4.93;2.30;;;24.10;71.30;;;;;;4196563;28;20040;-60
2023/04/24 11:41:22;;;;;;;4.73;2.33;;;24.20;71.40;;;;;;4196502;28;20036;-61
2023/04/24 11:43:45;;;;;;;3.90;2.10;;;24.20;72.00;;;;;;4194619;28;20392;-62
2023/04/24 11:46:08;;;;;;;4.90;2.35;;;24.20;71.40;;;;;;4179840;28;20044;-60
2023/04/24 11:48:36;;;;;;;5.03;2.10;;;24.10;71.30;;;;;;4194801;28;20130;-61
2023/04/24 11:51:01;;;;;;;5.35;2.20;;;24.10;71.30;;;;;;4189924;28;20408;-62
2023/04/24 11:53:24;;;;;;;4.95;2.20;;;24.10;71.30;;;;;;4187474;28;20028;-62
2023/04/24 11:55:46;;;;;;;4.65;2.45;;;24.20;71.40;;;;;;4197263;28;20040;-67
2023/04/24 11:58:09;;;;;;;5.25;2.65;;;24.20;71.30;;;;;;4185175;28;20031;-64
2023/04/24 12:00:36;;;;;;;5.65;2.40;;;24.10;71.30;;;;;;4200616;28;20054;-63
2023/04/24 12:03:24;;;;;;;6.80;2.58;;;24.20;71.40;;;;;;4195989;28;20032;-61
2023/04/24 12:05:47;;;;;;;4.82;2.28;;;24.20;71.20;;;;;;4199686;28;20040;-63
2023/04/24 12:08:09;;;;;;;3.75;2.00;;;24.10;71.10;;;;;;4195436;28;20565;-65
2023/04/24 12:10:34;;;;;;;5.78;2.33;;;24.10;71.10;;;;;;4193274;28;20086;-65
2023/04/24 12:12:58;;;;;;;6.53;2.47;;;24.10;71.10;;;;;;4195971;28;20044;-66
2023/04/24 12:15:21;;;;;;;7.70;2.33;;;24.10;71.20;;;;;;4192946;28;20040;-64
2023/04/24 12:17:44;;;;;;;7.38;2.47;;;24.10;71.10;;;;;;4195558;28;20035;-58
2023/04/24 12:20:08;;;;;;;5.95;2.42;;;24.20;71.30;;;;;;4191221;28;20127;-54
2023/04/24 12:22:46;;;;;;;;;;;24.20;70.60;;;;;;4202913;28;20062;-50
2023/04/24 12:25:11;;;;;;;9.05;3.13;;;24.10;70.20;;;;;;4203248;28;19978;-49